Heman, Illinois
Current Conditions -  °F | °C
As of 12:54 PM on Friday 28 Nov 2014 (Local Time) from KDEC Reporting Station
Clear Clear  
Wind Chill: -4°   Ceiling: Unl
Heat Index:   Visibility: 10mi
Dew Point: -2°   Wind: 18mph
Humidity: 73%   Direction: 180°S
Pressure: 30.06"   Gusts: 30mph
Location:  39.9621°N, 89.0863°W
Report Text: KDEC 281854Z 18016G26KT 10SM CLR 02/M02 A3006 RMK AO2 PK WND 18027/1801 SLP188 T00221022
Loading
Personal Weather Stations






























Interactive Weather Map New forecast layout! Learn more

10-Day Weather Forecast

Advertisements
Track Severe Weather on mobile